Air Navigation Services of Czech Republic  
Last data update:  23.09.2020 05:14:29 UTC česká verze
   METEO Page displayed:  23.09.2020 05:15:51 UTC  
help
METAR EDDB 230450Z VRB02KT CAVOK 13/11 Q1006 NOSIG=
METAR EDDC 230450Z 15007KT CAVOK 15/11 Q1007 NOSIG=
METAR EDDE 230450Z 20009KT CAVOK 15/12 Q1006 NOSIG=
METAR EDDF 230450Z 23003KT CAVOK 16/13 Q1007 NOSIG=
METAR EDDM 230450Z 27007KT 9999 FEW015CB BKN040 16/14 Q1009 TEMPO 25015G25KT 4000 TSRA=
METAR EDDN 230450Z 13004KT CAVOK 13/12 Q1008 TEMPO SHRA SCT030CB=
METAR EDDP 230450Z 17008KT CAVOK 15/12 Q1006 NOSIG=
METAR EDDT 230450Z 11002KT CAVOK 14/11 Q1005 NOSIG=
METAR EDQM 230450Z 00000KT CAVOK 12/11 Q1008=
METAR EPBY 230500Z 10003KT CAVOK 12/10 Q1008=
METAR EPGD 230500Z 22004KT CAVOK 13/10 Q1007=
METAR EPKK 230500Z 04006KT CAVOK 10/09 Q1011=
METAR EPKT 230500Z 07003KT CAVOK 09/07 Q1011=
METAR EPLL 230500Z 08003KT CAVOK 11/09 Q1010=
METAR EPPO 230500Z 12004KT CAVOK 13/10 Q1007=
METAR EPRZ 230500Z VRB01KT CAVOK 08/08 Q1013=
METAR EPWA 230500Z 13005KT CAVOK 11/10 Q1011 NOSIG=
METAR EPWR 230500Z 10003KT 060V130 CAVOK 14/10 Q1008=
METAR LHBP 230500Z 09002KT CAVOK 15/11 Q1012 NOSIG=
METAR LHSM 230445Z AUTO 15005KT 6000 NSC 15/14 Q1010=
SPECI LKBC 230509Z AUTO VRB01KT 0750 FG NCD 09/08 Q1008=
METAR LKCV 230500Z 15003KT CAVOK 15/10 Q1008 NOSIG RMK BLU BLU=
METAR LKKB 230500Z 17002KT CAVOK 12/09 Q1008 NOSIG RMK BLU BLU=
METAR LKKU NIL
METAR LKKV 230500Z VRB02KT 9999 MIFG NSC 11/11 Q1009 RMK REG QNH 1006=
SPECI LKLN 230502Z AUTO 00000KT 0400 BR VV003 10/10 Q1008=
METAR LKMT 230500Z VRB01KT CAVOK 10/09 Q1010 NOSIG RMK REG QNH 1006=
METAR LKNA 230500Z 10010KT CAVOK 14/09 Q1009 NOSIG RMK BLU BLU=
METAR LKPD 230500Z 24002KT CAVOK 12/10 Q1008 NOSIG RMK BLU BLU=
METAR LKPJ 230500Z AUTO VRB01KT CAVOK 09/08 Q1010=
METAR LKPR 230500Z VRB01KT CAVOK 12/10 Q1008 NOSIG RMK REG QNH 1006=
METAR LKTB 230500Z 09008KT CAVOK 15/10 Q1009 NOSIG RMK REG QNH 1006=
METAR LKVO NIL
METAR LOWI 230450Z 26002KT 9999 SCT060 BKN075 15/13 Q1010 BECMG FEW060CB BKN075 TEMPO SHRA=
METAR LOWL 230450Z 22003KT 8000 FEW050 13/13 Q1008 NOSIG=
METAR LOWS 230450Z 17005KT 9999 FEW035 BKN050 FEW060CB 14/12 Q1009 TEMPO 29012KT -SHRA=
METAR LOWW 230450Z 12009KT CAVOK 14/12 Q1008 NOSIG=
METAR LZIB 230500Z 04006KT 020V130 9999 FEW047 12/10 Q1010 NOSIG=
METAR LZKZ 230500Z 36006KT CAVOK 12/10 Q1013 NOSIG=
METAR LZMC 230400Z 15006KT CAVOK 17/11 Q1010=
METAR LZPP 230500Z 02004KT 350V060 CAVOK 14/10 Q1010=
METAR LZSL 230500Z VRB02KT 9999 FEW050 BKN080 13/10 Q1013=
METAR LZTT 230500Z 27004KT 9999 FEW060 SCT090 06/05 Q1014 NOSIG=
METAR LZZI 230500Z VRB01KT 9999 MIFG NSC 10/09 Q1011=